sensor_id;sensor_type;location;lat;lon;timestamp;P1;durP1;ratioP1;P2;durP2;ratioP2
57055;SDS011;42945;51.718;5.324;2023-04-03T17:21:44;5.18;;;1.20;;
57055;SDS011;42945;51.718;5.324;2023-04-03T17:27:32;4.68;;;1.27;;
57055;SDS011;42945;51.718;5.324;2023-04-03T17:33:21;3.72;;;1.13;;
57055;SDS011;42945;51.718;5.324;2023-04-03T17:39:09;3.30;;;1.00;;
57055;SDS011;42945;51.718;5.324;2023-04-03T17:44:57;4.47;;;1.77;;
57055;SDS011;42945;51.718;5.324;2023-04-03T17:50:47;5.75;;;1.30;;
57055;SDS011;42945;51.718;5.324;2023-04-03T17:56:35;3.50;;;0.95;;
57055;SDS011;42945;51.718;5.324;2023-04-03T18:02:23;5.80;;;1.30;;
57055;SDS011;42945;51.718;5.324;2023-04-03T18:08:12;5.93;;;1.45;;
57055;SDS011;42945;51.718;5.324;2023-04-03T18:14:00;3.13;;;1.30;;
57055;SDS011;42945;51.718;5.324;2023-04-03T18:23:51;6.38;;;1.73;;
57055;SDS011;42945;51.718;5.324;2023-04-03T18:29:42;3.13;;;1.20;;
57055;SDS011;42945;51.718;5.324;2023-04-03T18:35:32;6.28;;;1.50;;
57055;SDS011;42945;51.718;5.324;2023-04-03T18:41:20;2.60;;;1.23;;
57055;SDS011;42945;51.718;5.324;2023-04-03T18:47:10;3.30;;;1.35;;
57055;SDS011;42945;51.718;5.324;2023-04-03T18:52:59;4.07;;;1.10;;
57055;SDS011;42945;51.718;5.324;2023-04-03T18:58:48;4.65;;;1.55;;
57055;SDS011;42945;51.718;5.324;2023-04-03T19:04:35;5.40;;;1.38;;
57055;SDS011;42945;51.718;5.324;2023-04-03T19:10:24;4.05;;;1.60;;
57055;SDS011;42945;51.718;5.324;2023-04-03T19:16:13;5.50;;;1.38;;
57055;SDS011;42945;51.718;5.324;2023-04-03T19:25:58;6.82;;;1.60;;
57055;SDS011;42945;51.718;5.324;2023-04-03T19:31:52;4.82;;;1.50;;
57055;SDS011;42945;51.718;5.324;2023-04-03T19:37:46;4.68;;;1.30;;
57055;SDS011;42945;51.718;5.324;2023-04-03T19:43:36;7.00;;;1.60;;
57055;SDS011;42945;51.718;5.324;2023-04-03T19:49:26;5.68;;;1.60;;
57055;SDS011;42945;51.718;5.324;2023-04-03T19:55:15;5.90;;;1.40;;
57055;SDS011;42945;51.718;5.324;2023-04-03T20:01:04;4.38;;;1.50;;
57055;SDS011;42945;51.718;5.324;2023-04-03T20:06:52;5.80;;;1.48;;
57055;SDS011;42945;51.718;5.324;2023-04-03T20:12:40;3.10;;;1.10;;
57055;SDS011;42945;51.718;5.324;2023-04-03T20:18:28;4.75;;;1.48;;
57055;SDS011;42945;51.718;5.324;2023-04-03T20:28:11;5.70;;;1.23;;
57055;SDS011;42945;51.718;5.324;2023-04-03T20:34:01;7.13;;;1.75;;
57055;SDS011;42945;51.718;5.324;2023-04-03T20:39:49;6.07;;;1.60;;
57055;SDS011;42945;51.718;5.324;2023-04-03T20:45:37;3.20;;;1.10;;
57055;SDS011;42945;51.718;5.324;2023-04-03T20:51:26;5.13;;;1.70;;
57055;SDS011;42945;51.718;5.324;2023-04-03T20:57:15;5.80;;;1.92;;
57055;SDS011;42945;51.718;5.324;2023-04-03T21:03:04;6.85;;;1.48;;
57055;SDS011;42945;51.718;5.324;2023-04-03T21:21:42;5.80;;;1.73;;
57055;SDS011;42945;51.718;5.324;2023-04-03T21:31:51;7.93;;;2.70;;
57055;SDS011;42945;51.718;5.324;2023-04-03T21:37:40;6.40;;;2.20;;
57055;SDS011;42945;51.718;5.324;2023-04-03T21:43:28;9.25;;;2.30;;
57055;SDS011;42945;51.718;5.324;2023-04-03T21:49:16;5.90;;;2.45;;
57055;SDS011;42945;51.718;5.324;2023-04-03T21:55:04;10.73;;;2.80;;
57055;SDS011;42945;51.718;5.324;2023-04-03T22:00:54;7.90;;;2.13;;
57055;SDS011;42945;51.718;5.324;2023-04-03T22:06:43;7.10;;;2.28;;
57055;SDS011;42945;51.718;5.324;2023-04-03T22:12:31;6.57;;;2.50;;
57055;SDS011;42945;51.718;5.324;2023-04-03T22:18:18;8.13;;;2.42;;
57055;SDS011;42945;51.718;5.324;2023-04-03T22:24:06;4.45;;;2.50;;
57055;SDS011;42945;51.718;5.324;2023-04-03T22:33:56;7.25;;;2.45;;
57055;SDS011;42945;51.718;5.324;2023-04-03T22:39:43;4.80;;;2.20;;
57055;SDS011;42945;51.718;5.324;2023-04-03T22:45:31;5.80;;;2.20;;
57055;SDS011;42945;51.718;5.324;2023-04-03T22:51:19;7.00;;;2.13;;
57055;SDS011;42945;51.718;5.324;2023-04-03T22:57:07;6.13;;;2.28;;
57055;SDS011;42945;51.718;5.324;2023-04-03T23:02:57;7.20;;;2.28;;
57055;SDS011;42945;51.718;5.324;2023-04-03T23:08:45;5.85;;;2.55;;
57055;SDS011;42945;51.718;5.324;2023-04-03T23:14:32;13.93;;;3.38;;
57055;SDS011;42945;51.718;5.324;2023-04-03T23:20:20;6.43;;;2.60;;
57055;SDS011;42945;51.718;5.324;2023-04-03T23:26:07;7.60;;;2.90;;
57055;SDS011;42945;51.718;5.324;2023-04-03T23:35:30;8.43;;;2.75;;
57055;SDS011;42945;51.718;5.324;2023-04-03T23:41:18;5.47;;;2.85;;
57055;SDS011;42945;51.718;5.324;2023-04-03T23:47:06;10.13;;;3.05;;
57055;SDS011;42945;51.718;5.324;2023-04-03T23:52:54;10.85;;;3.13;;
57055;SDS011;42945;51.718;5.324;2023-04-03T23:58:42;7.80;;;3.13;;
